sensor_id;sensor_type;location;lat;lon;timestamp;P1;durP1;ratioP1;P2;durP2;ratioP2
14153;SDS011;7157;53.144;7.570;2023-04-23T00:01:26;28.75;;;14.00;;
14153;SDS011;7157;53.144;7.570;2023-04-23T00:11:33;30.50;;;15.10;;
14153;SDS011;7157;53.144;7.570;2023-04-23T00:21:45;36.45;;;13.57;;
14153;SDS011;7157;53.144;7.570;2023-04-23T00:32:01;30.25;;;14.50;;
14153;SDS011;7157;53.144;7.570;2023-04-23T00:42:15;32.70;;;15.10;;
14153;SDS011;7157;53.144;7.570;2023-04-23T00:52:35;33.05;;;14.88;;
14153;SDS011;7157;53.144;7.570;2023-04-23T01:03:01;35.97;;;15.55;;
14153;SDS011;7157;53.144;7.570;2023-04-23T01:13:21;35.10;;;16.23;;
14153;SDS011;7157;53.144;7.570;2023-04-23T01:23:28;31.73;;;16.55;;
14153;SDS011;7157;53.144;7.570;2023-04-23T01:33:32;34.83;;;16.42;;
14153;SDS011;7157;53.144;7.570;2023-04-23T01:43:37;35.13;;;16.02;;
14153;SDS011;7157;53.144;7.570;2023-04-23T01:53:43;35.45;;;17.00;;
14153;SDS011;7157;53.144;7.570;2023-04-23T02:03:48;38.22;;;17.27;;
14153;SDS011;7157;53.144;7.570;2023-04-23T02:13:52;32.60;;;16.05;;
14153;SDS011;7157;53.144;7.570;2023-04-23T02:23:56;33.72;;;17.30;;
14153;SDS011;7157;53.144;7.570;2023-04-23T02:33:59;42.83;;;18.58;;
14153;SDS011;7157;53.144;7.570;2023-04-23T02:44:04;36.67;;;17.40;;
14153;SDS011;7157;53.144;7.570;2023-04-23T02:54:07;40.60;;;18.17;;
14153;SDS011;7157;53.144;7.570;2023-04-23T03:04:12;37.33;;;18.52;;
14153;SDS011;7157;53.144;7.570;2023-04-23T03:14:19;41.72;;;17.40;;
14153;SDS011;7157;53.144;7.570;2023-04-23T03:24:24;39.63;;;17.63;;
14153;SDS011;7157;53.144;7.570;2023-04-23T03:34:27;45.83;;;18.60;;
14153;SDS011;7157;53.144;7.570;2023-04-23T03:44:32;37.13;;;17.05;;
14153;SDS011;7157;53.144;7.570;2023-04-23T03:54:35;40.15;;;16.30;;
14153;SDS011;7157;53.144;7.570;2023-04-23T04:04:41;40.70;;;18.10;;
14153;SDS011;7157;53.144;7.570;2023-04-23T04:14:49;39.58;;;18.70;;
14153;SDS011;7157;53.144;7.570;2023-04-23T04:24:54;39.30;;;17.77;;
14153;SDS011;7157;53.144;7.570;2023-04-23T04:34:57;41.15;;;17.48;;
14153;SDS011;7157;53.144;7.570;2023-04-23T04:45:05;38.78;;;17.48;;
14153;SDS011;7157;53.144;7.570;2023-04-23T04:55:09;45.47;;;19.73;;
14153;SDS011;7157;53.144;7.570;2023-04-23T05:05:13;81.70;;;20.83;;
14153;SDS011;7157;53.144;7.570;2023-04-23T05:15:21;214.85;;;24.10;;
14153;SDS011;7157;53.144;7.570;2023-04-23T05:25:43;265.75;;;28.00;;
14153;SDS011;7157;53.144;7.570;2023-04-23T05:35:46;236.90;;;30.45;;
14153;SDS011;7157;53.144;7.570;2023-04-23T05:45:50;250.63;;;33.33;;
14153;SDS011;7157;53.144;7.570;2023-04-23T05:55:53;95.85;;;28.88;;
14153;SDS011;7157;53.144;7.570;2023-04-23T06:05:57;84.68;;;29.20;;
14153;SDS011;7157;53.144;7.570;2023-04-23T06:16:00;89.40;;;30.20;;
14153;SDS011;7157;53.144;7.570;2023-04-23T06:26:04;76.00;;;30.10;;
14153;SDS011;7157;53.144;7.570;2023-04-23T06:36:07;80.95;;;29.52;;
14153;SDS011;7157;53.144;7.570;2023-04-23T06:46:12;91.38;;;32.30;;
14153;SDS011;7157;53.144;7.570;2023-04-23T06:56:15;83.53;;;31.75;;
14153;SDS011;7157;53.144;7.570;2023-04-23T07:06:19;91.88;;;32.55;;
14153;SDS011;7157;53.144;7.570;2023-04-23T07:16:21;84.80;;;33.50;;
14153;SDS011;7157;53.144;7.570;2023-04-23T07:26:27;77.70;;;31.63;;
14153;SDS011;7157;53.144;7.570;2023-04-23T07:36:29;83.30;;;33.17;;
14153;SDS011;7157;53.144;7.570;2023-04-23T07:46:33;75.35;;;30.95;;
14153;SDS011;7157;53.144;7.570;2023-04-23T07:56:36;61.80;;;26.45;;
14153;SDS011;7157;53.144;7.570;2023-04-23T08:06:41;41.55;;;21.20;;
14153;SDS011;7157;53.144;7.570;2023-04-23T08:16:44;42.60;;;21.00;;
14153;SDS011;7157;53.144;7.570;2023-04-23T08:26:48;35.95;;;19.05;;
14153;SDS011;7157;53.144;7.570;2023-04-23T08:36:50;34.38;;;18.25;;
14153;SDS011;7157;53.144;7.570;2023-04-23T08:46:54;34.90;;;16.70;;
14153;SDS011;7157;53.144;7.570;2023-04-23T08:57:00;30.55;;;16.38;;
14153;SDS011;7157;53.144;7.570;2023-04-23T09:07:04;34.88;;;18.20;;
14153;SDS011;7157;53.144;7.570;2023-04-23T09:17:11;29.38;;;18.10;;
14153;SDS011;7157;53.144;7.570;2023-04-23T09:27:15;32.38;;;18.25;;
14153;SDS011;7157;53.144;7.570;2023-04-23T09:37:25;27.77;;;16.33;;
14153;SDS011;7157;53.144;7.570;2023-04-23T09:47:31;25.65;;;15.23;;
14153;SDS011;7157;53.144;7.570;2023-04-23T09:57:35;29.45;;;15.90;;
14153;SDS011;7157;53.144;7.570;2023-04-23T10:07:40;27.65;;;15.60;;
14153;SDS011;7157;53.144;7.570;2023-04-23T10:17:43;21.85;;;13.38;;
14153;SDS011;7157;53.144;7.570;2023-04-23T10:27:49;20.05;;;11.90;;
14153;SDS011;7157;53.144;7.570;2023-04-23T10:37:57;14.38;;;8.20;;
14153;SDS011;7157;53.144;7.570;2023-04-23T10:48:04;14.63;;;8.82;;
14153;SDS011;7157;53.144;7.570;2023-04-23T10:58:10;14.52;;;8.25;;
14153;SDS011;7157;53.144;7.570;2023-04-23T11:08:18;10.70;;;6.40;;
14153;SDS011;7157;53.144;7.570;2023-04-23T11:18:25;11.00;;;6.00;;
14153;SDS011;7157;53.144;7.570;2023-04-23T11:28:40;11.43;;;6.30;;
14153;SDS011;7157;53.144;7.570;2023-04-23T11:38:45;14.00;;;6.32;;
14153;SDS011;7157;53.144;7.570;2023-04-23T11:48:49;10.07;;;5.93;;
14153;SDS011;7157;53.144;7.570;2023-04-23T11:58:57;8.02;;;4.22;;
14153;SDS011;7157;53.144;7.570;2023-04-23T12:09:02;6.38;;;4.05;;
14153;SDS011;7157;53.144;7.570;2023-04-23T12:19:08;6.43;;;3.40;;
14153;SDS011;7157;53.144;7.570;2023-04-23T12:29:16;6.43;;;2.70;;
14153;SDS011;7157;53.144;7.570;2023-04-23T12:39:24;4.78;;;2.30;;
14153;SDS011;7157;53.144;7.570;2023-04-23T12:49:31;3.35;;;1.45;;
14153;SDS011;7157;53.144;7.570;2023-04-23T12:59:38;4.07;;;1.58;;
14153;SDS011;7157;53.144;7.570;2023-04-23T13:09:43;5.43;;;2.15;;
14153;SDS011;7157;53.144;7.570;2023-04-23T13:19:46;6.15;;;1.40;;
14153;SDS011;7157;53.144;7.570;2023-04-23T13:29:51;5.75;;;1.40;;
14153;SDS011;7157;53.144;7.570;2023-04-23T13:39:53;4.32;;;1.42;;
14153;SDS011;7157;53.144;7.570;2023-04-23T13:49:58;4.97;;;1.50;;
14153;SDS011;7157;53.144;7.570;2023-04-23T14:00:03;6.93;;;1.50;;
14153;SDS011;7157;53.144;7.570;2023-04-23T14:10:14;4.15;;;1.20;;
14153;SDS011;7157;53.144;7.570;2023-04-23T14:20:18;3.42;;;1.13;;
14153;SDS011;7157;53.144;7.570;2023-04-23T14:30:24;3.50;;;1.10;;
14153;SDS011;7157;53.144;7.570;2023-04-23T14:40:33;4.68;;;1.30;;
14153;SDS011;7157;53.144;7.570;2023-04-23T14:50:37;3.00;;;1.00;;
14153;SDS011;7157;53.144;7.570;2023-04-23T15:00:40;5.45;;;1.10;;
14153;SDS011;7157;53.144;7.570;2023-04-23T15:10:45;6.65;;;2.15;;
14153;SDS011;7157;53.144;7.570;2023-04-23T15:20:48;3.67;;;1.20;;
14153;SDS011;7157;53.144;7.570;2023-04-23T15:30:52;6.35;;;1.40;;
14153;SDS011;7157;53.144;7.570;2023-04-23T15:40:58;5.20;;;1.25;;
14153;SDS011;7157;53.144;7.570;2023-04-23T15:51:03;5.00;;;1.30;;
14153;SDS011;7157;53.144;7.570;2023-04-23T16:01:07;5.90;;;1.27;;
14153;SDS011;7157;53.144;7.570;2023-04-23T16:11:12;5.00;;;1.20;;
14153;SDS011;7157;53.144;7.570;2023-04-23T16:21:15;3.10;;;1.10;;
14153;SDS011;7157;53.144;7.570;2023-04-23T16:31:19;6.45;;;2.22;;
14153;SDS011;7157;53.144;7.570;2023-04-23T16:41:23;8.52;;;1.25;;
14153;SDS011;7157;53.144;7.570;2023-04-23T16:51:27;8.30;;;2.00;;
14153;SDS011;7157;53.144;7.570;2023-04-23T17:01:30;6.25;;;1.52;;
14153;SDS011;7157;53.144;7.570;2023-04-23T17:11:35;3.80;;;1.77;;
14153;SDS011;7157;53.144;7.570;2023-04-23T17:21:38;4.00;;;1.60;;
14153;SDS011;7157;53.144;7.570;2023-04-23T17:31:43;4.78;;;1.75;;
14153;SDS011;7157;53.144;7.570;2023-04-23T17:41:47;3.72;;;1.88;;
14153;SDS011;7157;53.144;7.570;2023-04-23T17:51:52;5.97;;;2.15;;
14153;SDS011;7157;53.144;7.570;2023-04-23T18:01:55;3.42;;;2.00;;
14153;SDS011;7157;53.144;7.570;2023-04-23T18:12:00;7.18;;;3.05;;
14153;SDS011;7157;53.144;7.570;2023-04-23T18:22:04;9.23;;;3.55;;
14153;SDS011;7157;53.144;7.570;2023-04-23T18:32:09;8.80;;;3.25;;
14153;SDS011;7157;53.144;7.570;2023-04-23T18:42:27;6.70;;;2.90;;
14153;SDS011;7157;53.144;7.570;2023-04-23T18:52:32;5.32;;;2.90;;
14153;SDS011;7157;53.144;7.570;2023-04-23T19:02:35;6.05;;;3.10;;
14153;SDS011;7157;53.144;7.570;2023-04-23T19:12:42;4.85;;;2.58;;
14153;SDS011;7157;53.144;7.570;2023-04-23T19:22:45;4.47;;;1.98;;
14153;SDS011;7157;53.144;7.570;2023-04-23T19:32:49;5.55;;;1.33;;
14153;SDS011;7157;53.144;7.570;2023-04-23T19:42:53;3.63;;;1.50;;
14153;SDS011;7157;53.144;7.570;2023-04-23T19:52:57;3.15;;;1.70;;
14153;SDS011;7157;53.144;7.570;2023-04-23T20:03:00;4.68;;;2.03;;
14153;SDS011;7157;53.144;7.570;2023-04-23T20:13:04;5.10;;;2.28;;
14153;SDS011;7157;53.144;7.570;2023-04-23T20:23:07;5.70;;;2.28;;
14153;SDS011;7157;53.144;7.570;2023-04-23T20:33:12;4.10;;;2.42;;
14153;SDS011;7157;53.144;7.570;2023-04-23T20:43:16;6.22;;;2.70;;
14153;SDS011;7157;53.144;7.570;2023-04-23T20:53:20;4.35;;;2.90;;
14153;SDS011;7157;53.144;7.570;2023-04-23T21:03:23;5.22;;;3.15;;
14153;SDS011;7157;53.144;7.570;2023-04-23T21:14:10;7.47;;;3.53;;
14153;SDS011;7157;53.144;7.570;2023-04-23T21:24:37;6.18;;;3.17;;
14153;SDS011;7157;53.144;7.570;2023-04-23T21:34:54;4.72;;;3.05;;
14153;SDS011;7157;53.144;7.570;2023-04-23T21:44:59;5.25;;;3.20;;
14153;SDS011;7157;53.144;7.570;2023-04-23T21:55:05;6.60;;;3.85;;
14153;SDS011;7157;53.144;7.570;2023-04-23T22:26:33;8.57;;;4.40;;
14153;SDS011;7157;53.144;7.570;2023-04-23T22:36:48;8.15;;;4.80;;
14153;SDS011;7157;53.144;7.570;2023-04-23T22:47:10;6.82;;;4.10;;
14153;SDS011;7157;53.144;7.570;2023-04-23T22:57:28;9.52;;;4.28;;
14153;SDS011;7157;53.144;7.570;2023-04-23T23:07:50;7.32;;;4.63;;
14153;SDS011;7157;53.144;7.570;2023-04-23T23:17:54;8.05;;;4.05;;
14153;SDS011;7157;53.144;7.570;2023-04-23T23:28:05;7.32;;;5.10;;
14153;SDS011;7157;53.144;7.570;2023-04-23T23:38:13;5.40;;;3.10;;
14153;SDS011;7157;53.144;7.570;2023-04-23T23:48:22;2.83;;;1.73;;
14153;SDS011;7157;53.144;7.570;2023-04-23T23:58:25;3.85;;;1.77;;
